createdAt,value
2017-08-25T00:01:55.757Z,4.93
2017-08-25T00:04:24.083Z,5.70
2017-08-25T00:06:52.401Z,4.53
2017-08-25T00:09:20.731Z,5.10
2017-08-25T00:11:49.060Z,5.50
2017-08-25T00:14:17.392Z,4.83
2017-08-25T00:16:45.710Z,5.77
2017-08-25T00:19:14.045Z,3.97
2017-08-25T00:21:42.339Z,4.00
2017-08-25T00:24:10.671Z,5.97
2017-08-25T00:26:38.976Z,6.20
2017-08-25T00:29:07.300Z,6.97
2017-08-25T00:31:35.622Z,5.10
2017-08-25T00:34:03.934Z,6.30
2017-08-25T00:36:32.320Z,4.20
2017-08-25T00:39:00.651Z,5.10
2017-08-25T00:41:28.963Z,4.97
2017-08-25T00:43:57.283Z,4.33
2017-08-25T00:46:25.588Z,3.83
2017-08-25T00:48:53.916Z,5.13
2017-08-25T00:51:22.212Z,3.53
2017-08-25T00:53:50.539Z,6.13
2017-08-25T00:56:18.832Z,3.90
2017-08-25T00:58:47.178Z,3.93
2017-08-25T01:01:15.502Z,7.77
2017-08-25T01:03:43.823Z,4.17
2017-08-25T01:06:12.147Z,4.40
2017-08-25T01:08:40.440Z,3.73
2017-08-25T01:11:08.769Z,5.47
2017-08-25T01:13:37.069Z,6.20
2017-08-25T01:16:05.364Z,3.80
2017-08-25T01:18:33.714Z,4.77
2017-08-25T01:21:02.008Z,5.90
2017-08-25T01:23:30.345Z,5.90
2017-08-25T01:25:58.718Z,3.90
2017-08-25T01:28:27.119Z,4.03
2017-08-25T01:30:55.611Z,4.80
2017-08-25T01:33:23.905Z,4.20
2017-08-25T01:35:52.213Z,5.13
2017-08-25T01:38:20.538Z,4.00
2017-08-25T01:40:48.891Z,4.07
2017-08-25T01:43:17.221Z,4.43
2017-08-25T01:45:45.517Z,6.03
2017-08-25T01:48:13.846Z,4.33
2017-08-25T01:50:42.157Z,5.97
2017-08-25T01:53:10.460Z,4.97
2017-08-25T01:55:38.821Z,4.33
2017-08-25T01:58:07.145Z,5.00
2017-08-25T02:00:35.481Z,4.13
2017-08-25T02:03:03.775Z,6.77
2017-08-25T02:05:32.092Z,4.20
2017-08-25T02:08:00.394Z,5.57
2017-08-25T02:10:28.727Z,5.30
2017-08-25T02:12:57.129Z,5.20
2017-08-25T02:15:25.457Z,6.70
2017-08-25T02:17:53.764Z,5.10
2017-08-25T02:20:22.084Z,4.67
2017-08-25T02:22:50.380Z,6.13
2017-08-25T02:25:18.722Z,4.33
2017-08-25T02:27:47.018Z,6.77
2017-08-25T02:30:15.307Z,4.90
2017-08-25T02:32:43.629Z,5.03
2017-08-25T02:35:11.981Z,4.17
2017-08-25T02:37:40.276Z,5.00
2017-08-25T02:40:08.601Z,4.67
2017-08-25T02:42:36.895Z,4.53
2017-08-25T02:45:05.214Z,4.40
2017-08-25T02:47:33.605Z,4.90
2017-08-25T02:50:01.908Z,7.90
2017-08-25T02:52:30.414Z,6.13
2017-08-25T02:54:58.780Z,5.57
2017-08-25T02:57:27.085Z,5.23
2017-08-25T02:59:55.418Z,5.30
2017-08-25T03:02:23.704Z,4.93
2017-08-25T03:04:52.036Z,6.00
2017-08-25T03:07:20.328Z,6.30
2017-08-25T03:09:48.649Z,6.10
2017-08-25T03:12:16.947Z,8.80
2017-08-25T03:14:45.272Z,7.50
2017-08-25T03:17:13.621Z,4.93
2017-08-25T03:19:41.913Z,6.40
2017-08-25T03:22:10.222Z,5.30
2017-08-25T03:24:38.541Z,5.90
2017-08-25T03:27:06.880Z,6.80
2017-08-25T03:29:35.172Z,5.13
2017-08-25T03:32:03.492Z,4.40
2017-08-25T03:34:31.848Z,4.70
2017-08-25T03:37:00.143Z,6.10
2017-08-25T03:39:28.472Z,5.40
2017-08-25T03:41:56.771Z,4.93
2017-08-25T03:44:25.069Z,4.90
2017-08-25T03:46:53.442Z,4.60
2017-08-25T03:49:21.730Z,8.03
2017-08-25T03:51:50.093Z,9.03
2017-08-25T03:54:18.407Z,4.73
2017-08-25T03:56:46.703Z,6.40
2017-08-25T03:59:15.047Z,5.83
2017-08-25T04:01:43.350Z,5.33
2017-08-25T04:04:11.744Z,5.30
2017-08-25T04:06:40.039Z,4.70
2017-08-25T04:09:08.351Z,4.63
2017-08-25T04:11:36.990Z,5.37
2017-08-25T04:14:05.282Z,5.20
2017-08-25T04:16:33.573Z,8.20
2017-08-25T04:19:01.900Z,9.77
2017-08-25T04:21:30.232Z,6.13
2017-08-25T04:23:58.575Z,5.87
2017-08-25T04:26:26.893Z,6.43
2017-08-25T04:28:55.188Z,4.80
2017-08-25T04:31:23.538Z,10.10
2017-08-25T04:33:51.837Z,4.63
2017-08-25T04:36:20.236Z,6.13
2017-08-25T04:38:48.626Z,5.97
2017-08-25T04:41:16.982Z,5.20
2017-08-25T04:43:45.296Z,5.50
2017-08-25T04:46:13.608Z,6.30
2017-08-25T04:48:41.939Z,5.40
2017-08-25T04:51:10.230Z,6.53
2017-08-25T04:53:38.545Z,5.10
2017-08-25T04:56:06.922Z,4.80
2017-08-25T04:58:35.225Z,9.53
2017-08-25T05:01:03.520Z,4.90
2017-08-25T05:03:31.849Z,4.87
2017-08-25T05:06:00.147Z,5.20
2017-08-25T05:08:28.480Z,6.17
2017-08-25T05:11:03.477Z,5.70
2017-08-25T05:13:31.834Z,5.30
2017-08-25T05:16:00.150Z,5.77
2017-08-25T05:18:28.467Z,6.47
2017-08-25T05:20:56.809Z,5.90
2017-08-25T05:23:25.138Z,6.23
2017-08-25T05:25:53.473Z,6.37
2017-08-25T05:28:21.773Z,6.03
2017-08-25T05:30:50.074Z,7.87
2017-08-25T05:33:18.392Z,6.27
2017-08-25T05:35:46.701Z,6.87
2017-08-25T05:38:15.037Z,6.00
2017-08-25T05:40:43.350Z,8.00
2017-08-25T05:43:11.696Z,7.97
2017-08-25T05:45:39.993Z,5.70
2017-08-25T05:48:08.325Z,8.87
2017-08-25T05:50:36.671Z,5.87
2017-08-25T05:53:04.961Z,6.03
2017-08-25T05:55:33.307Z,5.07
2017-08-25T05:58:01.602Z,4.50
2017-08-25T06:00:29.932Z,5.43
2017-08-25T06:02:58.244Z,4.57
2017-08-25T06:05:26.550Z,4.90
2017-08-25T06:07:54.868Z,7.90
2017-08-25T06:10:23.171Z,4.73
2017-08-25T06:12:51.465Z,4.27
2017-08-25T06:15:20.853Z,5.77
2017-08-25T06:17:49.159Z,4.90
2017-08-25T06:20:17.487Z,5.13
2017-08-25T06:22:45.793Z,6.13
2017-08-25T06:25:14.129Z,5.80
2017-08-25T06:27:42.453Z,7.50
2017-08-25T06:30:10.744Z,5.70
2017-08-25T06:32:39.071Z,6.57
2017-08-25T06:35:07.360Z,4.87
2017-08-25T06:37:35.708Z,4.97
2017-08-25T06:40:04.011Z,5.37
2017-08-25T06:42:32.303Z,6.33
2017-08-25T06:45:00.616Z,4.57
2017-08-25T06:47:28.933Z,5.90
2017-08-25T06:49:57.232Z,5.03
2017-08-25T06:52:25.581Z,6.63
2017-08-25T06:54:53.873Z,5.10
2017-08-25T06:57:22.221Z,4.73
2017-08-25T06:59:50.517Z,5.63
2017-08-25T07:02:18.819Z,6.40
2017-08-25T07:04:47.377Z,4.27
2017-08-25T07:07:15.673Z,4.63
2017-08-25T07:09:43.988Z,4.80
2017-08-25T07:12:12.284Z,6.20
2017-08-25T07:14:41.097Z,5.50
2017-08-25T07:17:09.446Z,5.27
2017-08-25T07:19:37.760Z,4.17
2017-08-25T07:22:06.084Z,7.83
2017-08-25T07:24:34.393Z,5.20
2017-08-25T07:27:02.716Z,4.27
2017-08-25T07:29:31.034Z,6.47
2017-08-25T07:31:59.353Z,4.90
2017-08-25T07:34:27.669Z,9.93
2017-08-25T07:36:56.035Z,5.90
2017-08-25T07:39:24.342Z,4.43
2017-08-25T07:41:52.669Z,4.83
2017-08-25T07:44:22.193Z,4.73
2017-08-25T07:46:50.509Z,4.80
2017-08-25T07:49:18.806Z,4.60
2017-08-25T07:51:47.149Z,4.97
2017-08-25T07:54:15.458Z,4.63
2017-08-25T07:56:43.748Z,4.70
2017-08-25T07:59:12.084Z,4.13
2017-08-25T08:01:40.447Z,3.90
2017-08-25T08:04:08.779Z,5.33
2017-08-25T08:06:37.094Z,7.03
2017-08-25T08:09:05.390Z,5.67
2017-08-25T08:11:33.724Z,6.17
2017-08-25T08:14:02.078Z,6.27
2017-08-25T08:16:30.372Z,5.10
2017-08-25T08:18:58.737Z,5.30
2017-08-25T08:21:27.037Z,4.70
2017-08-25T08:23:55.365Z,4.43
2017-08-25T08:26:23.672Z,4.93
2017-08-25T08:28:52.009Z,5.87
2017-08-25T08:31:20.437Z,4.90
2017-08-25T08:33:48.749Z,4.43
2017-08-25T08:36:22.713Z,6.00
2017-08-25T08:38:51.001Z,4.20
2017-08-25T08:41:19.643Z,5.37
2017-08-25T08:43:47.978Z,6.07
2017-08-25T08:46:16.301Z,4.63
2017-08-25T08:48:44.690Z,5.90
2017-08-25T08:51:13.024Z,3.60
2017-08-25T08:53:41.354Z,6.10
2017-08-25T08:56:09.653Z,5.23
2017-08-25T08:58:38.017Z,6.10
2017-08-25T09:01:06.331Z,4.13
2017-08-25T09:03:34.648Z,5.23
2017-08-25T09:06:08.374Z,3.40
2017-08-25T09:08:36.725Z,3.47
2017-08-25T09:11:05.072Z,3.40
2017-08-25T09:13:33.378Z,3.80
2017-08-25T09:16:01.688Z,3.20
2017-08-25T09:18:30.005Z,5.30
2017-08-25T09:20:58.362Z,5.73
2017-08-25T09:23:26.696Z,4.00
2017-08-25T09:25:54.993Z,3.73
2017-08-25T09:28:23.316Z,5.57
2017-08-25T09:30:51.707Z,4.00
2017-08-25T09:33:20.093Z,4.43
2017-08-25T09:35:48.483Z,3.93
2017-08-25T09:38:16.844Z,2.70
2017-08-25T09:40:45.145Z,3.23
2017-08-25T09:43:13.454Z,4.80
2017-08-25T09:45:41.784Z,4.50
2017-08-25T09:48:10.082Z,5.60
2017-08-25T09:50:38.460Z,3.13
2017-08-25T09:53:06.788Z,4.80
2017-08-25T09:55:35.081Z,2.90
2017-08-25T09:58:03.415Z,3.77
2017-08-25T10:00:31.814Z,4.73
2017-08-25T10:03:00.153Z,4.40
2017-08-25T10:05:28.493Z,2.63
2017-08-25T10:07:56.854Z,5.67
2017-08-25T10:10:25.170Z,4.57
2017-08-25T10:12:53.501Z,2.80
2017-08-25T10:15:21.868Z,3.30
2017-08-25T10:17:50.222Z,2.40
2017-08-25T10:20:18.581Z,2.97
2017-08-25T10:22:46.941Z,6.10
2017-08-25T10:25:15.274Z,4.33
2017-08-25T10:27:43.659Z,7.60
2017-08-25T10:30:12.021Z,6.87
2017-08-25T10:32:40.345Z,3.53
2017-08-25T10:35:26.392Z,2.17
2017-08-25T10:51:29.541Z,2.73
2017-08-25T10:53:57.907Z,2.00
2017-08-25T10:56:26.213Z,5.57
2017-08-25T10:58:54.543Z,6.20
2017-08-25T11:01:22.847Z,3.10
2017-08-25T11:03:51.197Z,2.60
2017-08-25T11:06:19.531Z,1.90
2017-08-25T11:08:47.948Z,5.13
2017-08-25T11:11:16.297Z,1.97
2017-08-25T11:13:44.602Z,4.57
2017-08-25T11:16:12.897Z,2.37
2017-08-25T11:18:41.263Z,2.67
2017-08-25T11:21:09.561Z,3.20
2017-08-25T11:23:37.892Z,3.00
2017-08-25T11:26:06.194Z,3.00
2017-08-25T11:28:34.521Z,1.60
2017-08-25T11:31:02.865Z,1.87
2017-08-25T11:33:31.152Z,2.90
2017-08-25T11:35:59.527Z,2.87
2017-08-25T11:38:27.866Z,3.07
2017-08-25T11:40:56.179Z,1.67
2017-08-25T11:43:24.541Z,2.30
2017-08-25T11:45:52.916Z,5.03
2017-08-25T11:48:21.248Z,2.30
2017-08-25T11:50:49.593Z,1.80
2017-08-25T11:53:17.924Z,4.07
2017-08-25T11:55:46.230Z,2.10
2017-08-25T11:58:14.596Z,1.70
2017-08-25T12:00:42.903Z,1.90
2017-08-25T12:03:11.256Z,2.03
2017-08-25T12:05:39.604Z,1.80
2017-08-25T12:08:07.938Z,3.20
2017-08-25T12:10:36.269Z,3.03
2017-08-25T12:13:04.557Z,2.23
2017-08-25T12:15:32.897Z,2.17
2017-08-25T12:18:01.195Z,3.20
2017-08-25T12:20:29.552Z,4.87
2017-08-25T12:22:57.924Z,1.83
2017-08-25T12:25:26.232Z,2.10
2017-08-25T12:27:54.553Z,2.30
2017-08-25T12:30:22.899Z,2.83
2017-08-25T12:32:51.216Z,4.60
2017-08-25T12:35:19.551Z,3.00
2017-08-25T12:37:47.932Z,1.97
2017-08-25T12:40:16.309Z,2.70
2017-08-25T12:42:44.664Z,1.90
2017-08-25T12:45:12.980Z,3.40
2017-08-25T12:47:41.327Z,2.50
2017-08-25T12:50:09.625Z,2.63
2017-08-25T12:52:37.961Z,1.83
2017-08-25T12:55:06.281Z,2.83
2017-08-25T12:57:34.583Z,1.73
2017-08-25T13:00:03.218Z,4.47
2017-08-25T13:02:31.577Z,7.13
2017-08-25T13:04:59.882Z,2.83
2017-08-25T13:07:28.208Z,4.33
2017-08-25T13:09:56.531Z,2.90
2017-08-25T13:12:24.856Z,2.40
2017-08-25T13:14:53.245Z,3.63
2017-08-25T13:17:21.621Z,3.73
2017-08-25T13:19:49.960Z,3.10
2017-08-25T13:22:18.272Z,3.53
2017-08-25T13:24:46.570Z,2.40
2017-08-25T13:27:14.916Z,2.13
2017-08-25T13:29:43.287Z,3.60
2017-08-25T13:32:11.611Z,2.77
2017-08-25T13:34:39.919Z,3.30
2017-08-25T13:37:08.244Z,3.00
2017-08-25T13:39:36.554Z,2.80
2017-08-25T13:42:04.886Z,3.80
2017-08-25T13:44:33.215Z,3.43
2017-08-25T13:47:01.512Z,3.37
2017-08-25T13:49:29.883Z,3.60
2017-08-25T13:51:58.223Z,4.70
2017-08-25T13:54:26.604Z,2.80
2017-08-25T13:56:54.926Z,3.20
2017-08-25T13:59:23.292Z,2.87
2017-08-25T14:01:51.681Z,4.10
2017-08-25T14:04:19.984Z,2.10
2017-08-25T14:06:48.312Z,3.30
2017-08-25T14:09:16.638Z,6.03
2017-08-25T14:11:44.932Z,3.77
2017-08-25T14:14:13.273Z,3.30
2017-08-25T14:16:41.573Z,2.80
2017-08-25T14:19:09.963Z,3.33
2017-08-25T14:21:38.269Z,3.17
2017-08-25T14:24:06.635Z,2.93
2017-08-25T14:26:34.941Z,2.83
2017-08-25T14:29:03.269Z,3.00
2017-08-25T14:31:31.633Z,3.40
2017-08-25T14:33:59.932Z,3.43
2017-08-25T14:36:28.267Z,3.10
2017-08-25T14:38:56.608Z,3.13
2017-08-25T14:41:24.917Z,2.70
2017-08-25T14:43:53.243Z,2.27
2017-08-25T14:46:21.625Z,2.47
2017-08-25T14:48:50.009Z,2.33
2017-08-25T14:51:18.322Z,3.30
2017-08-25T14:53:46.643Z,2.43
2017-08-25T14:56:15.008Z,2.17
2017-08-25T14:58:43.333Z,2.27
2017-08-25T15:01:11.662Z,4.30
2017-08-25T15:03:39.993Z,4.90
2017-08-25T15:06:08.320Z,2.40
2017-08-25T15:08:36.669Z,4.80
2017-08-25T15:11:05.000Z,3.30
2017-08-25T15:13:33.337Z,2.53
2017-08-25T15:16:01.693Z,2.70
2017-08-25T15:18:30.005Z,4.50
2017-08-25T15:20:58.332Z,3.03
2017-08-25T15:23:26.630Z,3.30
2017-08-25T15:25:54.960Z,4.90
2017-08-25T15:28:23.260Z,5.10
2017-08-25T15:30:51.559Z,2.20
2017-08-25T15:33:19.927Z,2.73
2017-08-25T15:35:48.312Z,2.73
2017-08-25T15:38:16.680Z,2.50
2017-08-25T15:40:44.980Z,3.30
2017-08-25T15:43:13.280Z,2.70
2017-08-25T15:45:41.625Z,2.83
2017-08-25T15:48:09.929Z,3.43
2017-08-25T15:50:38.267Z,2.83
2017-08-25T15:53:06.591Z,4.97
2017-08-25T15:55:34.895Z,2.60
2017-08-25T15:58:03.226Z,4.10
2017-08-25T16:00:31.556Z,4.57
2017-08-25T16:02:59.854Z,3.93
2017-08-25T16:05:28.250Z,2.93
2017-08-25T16:07:56.613Z,3.00
2017-08-25T16:10:24.953Z,2.93
2017-08-25T16:12:53.262Z,2.10
2017-08-25T16:15:21.605Z,3.10
2017-08-25T16:17:49.906Z,2.97
2017-08-25T16:20:18.233Z,3.70
2017-08-25T16:22:46.610Z,6.87
2017-08-25T16:25:14.922Z,4.50
2017-08-25T16:27:43.278Z,2.30
2017-08-25T16:30:11.597Z,3.17
2017-08-25T16:32:39.924Z,4.03
2017-08-25T16:35:08.259Z,7.93
2017-08-25T16:37:36.602Z,5.67
2017-08-25T16:40:04.956Z,7.93
2017-08-25T16:42:33.331Z,27.90
2017-08-25T16:45:01.665Z,34.40
2017-08-25T16:47:29.969Z,48.03
2017-08-25T16:49:58.290Z,57.90
2017-08-25T16:52:26.597Z,60.13
2017-08-25T16:54:54.964Z,28.83
2017-08-25T16:57:23.343Z,10.13
2017-08-25T16:59:51.973Z,5.90
2017-08-25T17:02:20.359Z,6.50
2017-08-25T17:04:48.686Z,6.23
2017-08-25T17:07:17.029Z,7.43
2017-08-25T17:09:45.333Z,7.77
2017-08-25T17:12:13.637Z,15.57
2017-08-25T17:14:41.979Z,11.20
2017-08-25T17:17:10.281Z,15.47
2017-08-25T17:19:38.596Z,13.30
2017-08-25T17:22:06.972Z,13.03
2017-08-25T17:24:35.290Z,17.30
2017-08-25T17:27:03.638Z,18.30
2017-08-25T17:29:31.953Z,21.47
2017-08-25T17:32:00.308Z,20.27
2017-08-25T17:34:28.667Z,21.33
2017-08-25T17:36:57.071Z,17.20
2017-08-25T17:39:25.396Z,19.07
2017-08-25T17:41:53.725Z,21.17
2017-08-25T17:44:22.084Z,17.43
2017-08-25T17:46:50.486Z,22.53
2017-08-25T17:49:18.834Z,33.70
2017-08-25T17:51:47.187Z,46.47
2017-08-25T17:54:15.553Z,36.73
2017-08-25T17:56:43.922Z,66.47
2017-08-25T17:59:12.284Z,30.93
2017-08-25T18:01:40.648Z,43.30
2017-08-25T18:04:08.984Z,61.80
2017-08-25T18:06:37.284Z,37.60
2017-08-25T18:09:05.639Z,44.77
2017-08-25T18:11:33.957Z,49.60
2017-08-25T18:14:02.283Z,51.93
2017-08-25T18:16:36.234Z,56.43
2017-08-25T18:19:04.554Z,47.00
2017-08-25T18:21:32.885Z,41.07
2017-08-25T18:24:01.254Z,46.63
2017-08-25T18:26:29.586Z,42.83
2017-08-25T18:28:57.918Z,37.80
2017-08-25T18:31:26.454Z,39.20
2017-08-25T18:33:54.806Z,35.43
2017-08-25T18:36:23.223Z,28.90
2017-08-25T18:38:51.580Z,25.67
2017-08-25T18:41:19.902Z,24.37
2017-08-25T18:43:48.233Z,28.73
2017-08-25T18:46:16.582Z,28.17
2017-08-25T18:48:44.921Z,24.10
2017-08-25T18:51:13.234Z,68.37
2017-08-25T18:53:41.580Z,51.17
2017-08-25T18:56:09.940Z,44.70
2017-08-25T18:58:38.289Z,35.07
2017-08-25T19:01:06.650Z,30.77
2017-08-25T19:03:34.993Z,32.60
2017-08-25T19:06:03.287Z,31.10
2017-08-25T19:08:31.633Z,28.67
2017-08-25T19:10:59.938Z,28.27
2017-08-25T19:13:28.243Z,21.43
2017-08-25T19:15:56.991Z,27.07
2017-08-25T19:18:25.306Z,30.50
2017-08-25T19:20:53.623Z,29.57
2017-08-25T19:23:21.976Z,30.97
2017-08-25T19:25:50.279Z,24.83
2017-08-25T19:28:18.625Z,22.57
2017-08-25T19:30:46.968Z,26.77
2017-08-25T19:33:15.303Z,25.87
2017-08-25T19:35:43.627Z,29.87
2017-08-25T19:38:11.968Z,27.90
2017-08-25T19:40:40.305Z,34.40
2017-08-25T19:43:08.702Z,24.90
2017-08-25T19:45:37.015Z,29.07
2017-08-25T19:48:05.371Z,21.10
2017-08-25T19:50:33.703Z,28.83
2017-08-25T19:53:02.005Z,21.70
2017-08-25T19:55:30.328Z,19.40
2017-08-25T19:57:58.659Z,31.10
2017-08-25T20:00:26.998Z,32.93
2017-08-25T20:02:55.301Z,25.23
2017-08-25T20:05:23.629Z,33.43
2017-08-25T20:07:52.018Z,25.20
2017-08-25T20:10:20.340Z,24.50
2017-08-25T20:12:48.668Z,27.53
2017-08-25T20:15:17.019Z,27.10
2017-08-25T20:17:45.349Z,28.90
2017-08-25T20:20:13.654Z,31.90
2017-08-25T20:22:41.992Z,28.13
2017-08-25T20:25:10.302Z,23.90
2017-08-25T20:27:38.640Z,24.80
2017-08-25T20:30:06.971Z,28.87
2017-08-25T20:32:35.267Z,29.53
2017-08-25T20:35:03.603Z,22.30
2017-08-25T20:37:31.967Z,24.90
2017-08-25T20:40:00.294Z,22.53
2017-08-25T20:42:28.595Z,25.60
2017-08-25T20:44:56.945Z,25.00
2017-08-25T20:47:25.314Z,23.73
2017-08-25T20:49:53.635Z,24.73
2017-08-25T20:52:22.018Z,24.63
2017-08-25T20:54:50.349Z,26.57
2017-08-25T20:57:18.702Z,25.40
2017-08-25T20:59:47.014Z,23.83
2017-08-25T21:02:15.316Z,21.47
2017-08-25T21:04:43.644Z,20.00
2017-08-25T21:07:11.954Z,18.60
2017-08-25T21:09:40.307Z,17.40
2017-08-25T21:12:08.648Z,22.23
2017-08-25T21:14:36.977Z,17.67
2017-08-25T21:17:05.312Z,23.73
2017-08-25T21:19:33.657Z,20.97
2017-08-25T21:22:02.009Z,19.20
2017-08-25T21:24:30.357Z,23.33
2017-08-25T21:26:58.658Z,23.87
2017-08-25T21:29:26.956Z,20.37
2017-08-25T21:31:55.308Z,25.60
2017-08-25T21:34:23.644Z,23.23
2017-08-25T21:36:51.962Z,26.73
2017-08-25T21:39:20.295Z,27.20
2017-08-25T21:41:48.708Z,22.90
2017-08-25T21:44:17.056Z,20.07
2017-08-25T21:46:45.408Z,17.90
2017-08-25T21:49:13.762Z,18.23
2017-08-25T21:51:42.090Z,25.23
2017-08-25T21:54:10.393Z,30.63
2017-08-25T21:56:38.734Z,24.13
2017-08-25T21:59:07.041Z,22.40
2017-08-25T22:01:35.349Z,23.07
2017-08-25T22:04:03.714Z,24.50
2017-08-25T22:06:32.081Z,20.63
2017-08-25T22:09:00.477Z,21.90
2017-08-25T22:11:29.185Z,21.53
2017-08-25T22:13:57.490Z,18.70
2017-08-25T22:16:25.832Z,24.57
2017-08-25T22:18:54.198Z,23.63
2017-08-25T22:21:22.503Z,24.00
2017-08-25T22:23:50.849Z,27.77
2017-08-25T22:26:19.225Z,20.40
2017-08-25T22:28:47.525Z,22.27
2017-08-25T22:31:15.856Z,20.50
2017-08-25T22:33:44.212Z,17.20
2017-08-25T22:36:12.552Z,20.87
2017-08-25T22:38:40.894Z,18.60
2017-08-25T22:41:09.241Z,26.27
2017-08-25T22:43:37.551Z,18.90
2017-08-25T22:46:05.869Z,18.20
2017-08-25T22:48:34.203Z,19.43
2017-08-25T22:51:02.515Z,23.13
2017-08-25T22:53:30.858Z,28.30
2017-08-25T22:55:59.164Z,31.40
2017-08-25T22:58:27.515Z,29.13
2017-08-25T23:00:55.861Z,20.10
2017-08-25T23:03:24.200Z,24.43
2017-08-25T23:05:52.538Z,21.67
2017-08-25T23:08:20.896Z,25.03
2017-08-25T23:10:49.201Z,29.10
2017-08-25T23:13:17.545Z,22.97
2017-08-25T23:15:45.849Z,27.10
2017-08-25T23:18:14.166Z,25.67
2017-08-25T23:20:42.527Z,23.20
2017-08-25T23:23:10.852Z,23.57
2017-08-25T23:25:39.187Z,25.80
2017-08-25T23:28:07.535Z,41.20
2017-08-25T23:30:35.842Z,55.53
2017-08-25T23:33:04.181Z,61.70
2017-08-25T23:35:32.521Z,75.93
2017-08-25T23:38:00.838Z,78.33
2017-08-25T23:40:29.176Z,57.10
2017-08-25T23:42:57.479Z,52.37
2017-08-25T23:45:25.788Z,47.80
2017-08-25T23:47:54.194Z,41.60
2017-08-25T23:50:22.557Z,64.80
2017-08-25T23:52:50.889Z,56.00
2017-08-25T23:55:19.238Z,42.97
2017-08-25T23:57:47.564Z,44.67
